Terminal Aerodrome Forecast
Issued by NWS Cleveland, OH

Home | Current Version | Previous Version | Text Only | Print | Product List | Glossary On
Versions: 1 2 3 4 5 6 7 8 9 10 11 12 13 14 15 16 17 18
899
FTUS41 KCLE 251755 CCA
TAFTOL
TAF COR
KTOL 251755Z 2518/2618 34010KT P6SM SCT025 BKN035
     FM252100 34012KT P6SM SCT035
     FM260000 35003KT P6SM FEW035=

USA.gov is the U.S. government's official web portal to all federal, state and local government web resources and services.